KCOD/COD METAR and TAF weather

Enter ICAO airport designator
Station Type Date Time Source
KCOD METAR 2018/12/12 22:56 UTC NOAA

KCOD 122256Z AUTO 27015G22KT 10SM CLR 02/M12 A2989 RMK AO2 SLP137 T00221117 FZRANO


Station Type Date Time Source
KCOD Decoded METAR 2018/12/12 22:56 UTC NOAA

Cody, WY, United States (KCOD) 44-31N 109-01W 1553M
Dec 12, 2018 - 05:56 PM EST / 2018.12.12 2256 UTC
Wind: from the W (270 degrees) at 17 MPH (15 KT) gusting to 25 MPH (22 KT):0
Visibility: 10 mile(s):0
Sky conditions: clear
Temperature: 36.0 F (2.2 C)
Dew Point: 10.9 F (-11.7 C)
Relative Humidity: 34%
Pressure (altimeter): 29.89 in. Hg (1012 hPa)
ob: KCOD 122256Z AUTO 27015G22KT 10SM CLR 02/M12 A2989 RMK AO2 SLP137 T00221117 FZRANO
cycle: 23

Station Type Date Time Source
KCOD TAF 2018/12/12 18:24 UTC NOAA

TAF KCOD 121721Z 1218/1318 29015G25KT P6SM BKN060
FM121900 30018G28KT P6SM SCT090 BKN150
FM130000 26012G20KT P6SM FEW090
AMD LTD TO CLD VIS AND WIND


Example: see airport list